Time;durP1;ratioP1;P1;durP2;ratioP2;P2;SDS_P1;SDS_P2;PMS_P1;PMS_P2;Temp;Humidity;BMP_temperature;BMP_pressure;BME280_temperature;BME280_humidity;BME280_pressure;Samples;Min_cycle;Max_cycle;Signal;HPM_P1;HPM_P2
2021/11/15 00:00:31;;;;;;;35.93;15.33;;;;;;;;;;5033437;28;20434;-89
2021/11/15 00:02:58;;;;;;;36.87;17.13;;;;;;;;;;5034773;28;20116;-89
2021/11/15 00:05:23;;;;;;;39.03;16.30;;;;;;;;;;5033004;28;20025;-89
2021/11/15 00:07:48;;;;;;;39.13;16.73;;;;;;;;;;5033470;28;20029;-89
2021/11/15 00:10:16;;;;;;;33.57;16.47;;;;;;;;;;5033525;28;20021;-89
2021/11/15 00:12:42;;;;;;;30.53;14.83;;;;;;;;;;5033401;28;20457;-89
2021/11/15 00:15:08;;;;;;;38.97;16.23;;;;;;;;;;5033369;28;20428;-89
2021/11/15 00:17:33;;;;;;;34.90;15.57;;;;;;;;;;5033274;28;20021;-89
2021/11/15 00:19:58;;;;;;;39.43;16.97;;;;;;;;;;5034584;28;20041;-89
2021/11/15 00:22:23;;;;;;;35.17;16.10;;;;;;;;;;5033328;28;20421;-90
2021/11/15 00:24:49;;;;;;;36.57;16.37;;;;;;;;;;5033085;28;20038;-90
2021/11/15 00:27:14;;;;;;;36.57;16.47;;;;;;;;;;5033278;28;20029;-90
2021/11/15 00:29:39;;;;;;;35.00;16.40;;;;;;;;;;5032818;28;20061;-89
2021/11/15 00:32:04;;;;;;;32.87;15.40;;;;;;;;;;5039882;28;20017;-89
2021/11/15 00:34:30;;;;;;;39.13;16.03;;;;;;;;;;5032850;28;20028;-89
2021/11/15 00:36:55;;;;;;;35.63;16.67;;;;;;;;;;5032942;28;20018;-90
2021/11/15 00:39:20;;;;;;;33.10;14.87;;;;;;;;;;5032925;28;20473;-89
2021/11/15 00:41:46;;;;;;;35.90;16.70;;;;;;;;;;5032999;28;20052;-89
2021/11/15 00:44:11;;;;;;;47.58;15.55;;;;;;;;;;5032825;28;20033;-90
2021/11/15 00:46:36;;;;;;;32.38;15.23;;;;;;;;;;5032722;28;20067;-90
2021/11/15 00:49:02;;;;;;;35.08;16.60;;;;;;;;;;5032583;28;20550;-90
2021/11/15 00:51:28;;;;;;;32.05;15.32;;;;;;;;;;5032345;28;20128;-89
2021/11/15 00:53:54;;;;;;;36.80;16.67;;;;;;;;;;5024665;28;20457;-88
2021/11/15 00:56:19;;;;;;;34.07;16.63;;;;;;;;;;5059839;28;20032;-89
2021/11/15 00:58:44;;;;;;;38.55;16.65;;;;;;;;;;5046213;28;20052;-89
2021/11/15 01:01:10;;;;;;;36.47;17.27;;;;;;;;;;5025478;28;20087;-89
2021/11/15 01:03:35;;;;;;;39.83;17.63;;;;;;;;;;5032572;28;20017;-89
2021/11/15 01:06:00;;;;;;;37.20;16.33;;;;;;;;;;5032725;28;20027;-89
2021/11/15 01:08:26;;;;;;;33.93;16.60;;;;;;;;;;5033476;28;20060;-90
2021/11/15 01:10:52;;;;;;;32.67;16.50;;;;;;;;;;5028575;28;20046;-89
2021/11/15 01:13:18;;;;;;;35.37;15.83;;;;;;;;;;5027432;28;20049;-89
2021/11/15 01:15:43;;;;;;;38.77;16.77;;;;;;;;;;5053401;28;20453;-90
2021/11/15 01:18:08;;;;;;;36.83;17.40;;;;;;;;;;5032405;28;20028;-89
2021/11/15 01:20:34;;;;;;;35.10;16.60;;;;;;;;;;5032190;28;20080;-89
2021/11/15 01:22:59;;;;;;;40.97;15.93;;;;;;;;;;5032064;28;20029;-89
2021/11/15 01:25:25;;;;;;;41.47;17.20;;;;;;;;;;5033463;28;20476;-90
2021/11/15 01:27:51;;;;;;;40.60;17.90;;;;;;;;;;5032679;28;20361;-89
2021/11/15 01:30:18;;;;;;;39.30;17.57;;;;;;;;;;5033110;28;20025;-90
2021/11/15 01:32:43;;;;;;;39.53;17.33;;;;;;;;;;5032218;28;20431;-89
2021/11/15 01:35:09;;;;;;;41.23;17.57;;;;;;;;;;5032094;28;20013;-89
2021/11/15 01:37:34;;;;;;;40.77;17.23;;;;;;;;;;5032406;28;20476;-88
2021/11/15 01:39:59;;;;;;;47.20;19.23;;;;;;;;;;5031982;28;20032;-89
2021/11/15 01:42:25;;;;;;;39.07;18.33;;;;;;;;;;5032365;28;20044;-90
2021/11/15 01:44:50;;;;;;;40.27;18.33;;;;;;;;;;5045897;28;20464;-88
2021/11/15 01:47:16;;;;;;;43.80;18.90;;;;;;;;;;5033435;28;20462;-89
2021/11/15 01:49:41;;;;;;;43.40;18.67;;;;;;;;;;5032951;28;20128;-90
2021/11/15 01:52:07;;;;;;;41.07;18.83;;;;;;;;;;5032173;28;20032;-90
2021/11/15 01:54:33;;;;;;;42.03;18.43;;;;;;;;;;5032230;28;20021;-90
2021/11/15 01:56:58;;;;;;;41.57;16.77;;;;;;;;;;5032185;28;20032;-90
2021/11/15 01:59:23;;;;;;;48.78;18.67;;;;;;;;;;5031564;28;20436;-90
2021/11/15 02:01:48;;;;;;;38.03;17.85;;;;;;;;;;5031882;28;20040;-90
2021/11/15 02:04:14;;;;;;;39.17;18.17;;;;;;;;;;5017897;28;20389;-90
2021/11/15 02:06:39;;;;;;;46.80;19.83;;;;;;;;;;5031759;28;20068;-90
2021/11/15 02:09:05;;;;;;;46.05;20.20;;;;;;;;;;5017813;28;20478;-90
2021/11/15 02:11:30;;;;;;;46.72;20.13;;;;;;;;;;5031954;28;20071;-90
2021/11/15 02:13:56;;;;;;;45.47;20.27;;;;;;;;;;5031839;28;20105;-90
2021/11/15 02:16:21;;;;;;;47.13;20.83;;;;;;;;;;5032492;28;20028;-90
2021/11/15 02:18:46;;;;;;;46.65;21.48;;;;;;;;;;5035437;28;20021;-90
2021/11/15 02:21:12;;;;;;;49.03;20.80;;;;;;;;;;5068809;28;20384;-90
2021/11/15 02:23:39;;;;;;;43.25;20.48;;;;;;;;;;5035412;28;20108;-90
2021/11/15 02:26:06;;;;;;;42.17;19.63;;;;;;;;;;5034609;28;20022;-90
2021/11/15 02:28:32;;;;;;;43.78;20.13;;;;;;;;;;5055474;28;20484;-90
2021/11/15 02:30:58;;;;;;;45.08;20.73;;;;;;;;;;5035298;28;20235;-90
2021/11/15 02:33:23;;;;;;;44.53;20.38;;;;;;;;;;5035051;28;20085;-90
2021/11/15 02:35:49;;;;;;;47.90;20.83;;;;;;;;;;5035344;28;20022;-90
2021/11/15 02:38:14;;;;;;;52.72;21.63;;;;;;;;;;5035145;28;20396;-90
2021/11/15 02:40:40;;;;;;;56.88;21.52;;;;;;;;;;5035236;28;20084;-90
2021/11/15 02:43:05;;;;;;;53.03;22.85;;;;;;;;;;5035189;28;20025;-90
2021/11/15 02:45:31;;;;;;;52.50;22.55;;;;;;;;;;5034810;28;20014;-90
2021/11/15 02:47:57;;;;;;;56.35;23.65;;;;;;;;;;5035137;28;20096;-90
2021/11/15 02:50:23;;;;;;;65.05;24.23;;;;;;;;;;5034937;28;20049;-89
2021/11/15 02:52:50;;;;;;;62.35;23.88;;;;;;;;;;5034890;28;20021;-90
2021/11/15 02:55:16;;;;;;;57.10;22.17;;;;;;;;;;5034814;28;20026;-90
2021/11/15 02:57:41;;;;;;;59.30;22.25;;;;;;;;;;5034626;28;20147;-89
2021/11/15 03:00:19;;;;;;;59.28;24.90;;;;;;;;;;5034796;28;20053;-89
2021/11/15 03:02:45;;;;;;;58.67;23.85;;;;;;;;;;5035089;28;20022;-90
2021/11/15 03:05:10;;;;;;;62.65;25.00;;;;;;;;;;5034623;28;20433;-90
2021/11/15 03:07:36;;;;;;;58.38;25.20;;;;;;;;;;5034883;28;20047;-90
2021/11/15 03:10:01;;;;;;;67.47;27.48;;;;;;;;;;5034567;28;20029;-88
2021/11/15 03:12:30;;;;;;;72.55;27.65;;;;;;;;;;5034707;28;20053;-90
2021/11/15 03:14:56;;;;;;;67.15;25.55;;;;;;;;;;5035541;28;20025;-90
2021/11/15 03:17:21;;;;;;;68.72;27.58;;;;;;;;;;5033990;28;20039;-89
2021/11/15 03:19:46;;;;;;;70.78;27.02;;;;;;;;;;5034297;28;20032;-90
2021/11/15 03:22:11;;;;;;;66.45;27.60;;;;;;;;;;5034496;28;20021;-90
2021/11/15 03:24:36;;;;;;;69.72;28.52;;;;;;;;;;5034180;28;20469;-90
2021/11/15 03:27:02;;;;;;;75.32;30.48;;;;;;;;;;5034238;28;20472;-90
2021/11/15 03:29:27;;;;;;;74.72;30.25;;;;;;;;;;5033146;28;20033;-89
2021/11/15 03:31:52;;;;;;;73.90;30.38;;;;;;;;;;5034149;28;20033;-90
2021/11/15 03:34:17;;;;;;;76.07;29.25;;;;;;;;;;5022019;28;20029;-90
2021/11/15 03:36:46;;;;;;;73.43;29.05;;;;;;;;;;5065766;28;20033;-89
2021/11/15 03:39:12;;;;;;;73.75;30.10;;;;;;;;;;5034314;28;20548;-90
2021/11/15 03:41:38;;;;;;;75.90;31.65;;;;;;;;;;5033812;28;20045;-89
2021/11/15 03:44:04;;;;;;;73.05;30.45;;;;;;;;;;5035026;28;20064;-89
2021/11/15 03:46:30;;;;;;;70.55;29.17;;;;;;;;;;5033318;28;20022;-89
2021/11/15 03:48:55;;;;;;;73.40;29.33;;;;;;;;;;5033748;28;20393;-90
2021/11/15 03:51:20;;;;;;;65.85;25.50;;;;;;;;;;5034086;28;20021;-90
2021/11/15 03:53:46;;;;;;;75.35;31.20;;;;;;;;;;5033531;28;20006;-90
2021/11/15 03:56:14;;;;;;;66.60;27.25;;;;;;;;;;5033834;28;20461;-90
2021/11/15 03:58:41;;;;;;;71.53;29.10;;;;;;;;;;5033782;28;20446;-90
2021/11/15 04:01:06;;;;;;;73.85;30.92;;;;;;;;;;5033554;28;20022;-90
2021/11/15 04:03:34;;;;;;;72.13;31.05;;;;;;;;;;5033458;28;20140;-90
2021/11/15 04:06:12;;;;;;;64.10;26.85;;;;;;;;;;5033243;28;20104;-90
2021/11/15 04:08:37;;;;;;;78.25;32.88;;;;;;;;;;5033969;28;20017;-90
2021/11/15 04:11:04;;;;;;;62.00;25.52;;;;;;;;;;5033461;28;20481;-90
2021/11/15 04:13:32;;;;;;;74.28;31.52;;;;;;;;;;5033529;28;20075;-89
2021/11/15 04:16:00;;;;;;;63.00;26.20;;;;;;;;;;5034490;28;20458;-90
2021/11/15 04:18:27;;;;;;;69.95;29.00;;;;;;;;;;5034286;28;20028;-90
2021/11/15 04:20:53;;;;;;;73.43;31.65;;;;;;;;;;5033292;28;20033;-90
2021/11/15 04:23:18;;;;;;;77.28;32.20;;;;;;;;;;5027442;28;20026;-90
2021/11/15 04:25:43;;;;;;;72.15;32.08;;;;;;;;;;5026134;28;20021;-90
2021/11/15 04:28:08;;;;;;;78.45;31.48;;;;;;;;;;5033075;28;20026;-90
2021/11/15 04:30:34;;;;;;;78.70;30.60;;;;;;;;;;5033899;28;20377;-89
2021/11/15 04:33:00;;;;;;;45.47;15.35;;;;;;;;;;5032796;28;20036;-89
2021/11/15 04:35:25;;;;;;;68.15;27.63;;;;;;;;;;5032771;28;20032;-90
2021/11/15 04:37:50;;;;;;;65.65;24.30;;;;;;;;;;5032547;28;20021;-90
2021/11/15 04:40:16;;;;;;;59.33;25.85;;;;;;;;;;5032550;28;20017;-90
2021/11/15 04:42:42;;;;;;;59.42;25.90;;;;;;;;;;5032934;28;20116;-90
2021/11/15 04:45:07;;;;;;;67.85;29.42;;;;;;;;;;5032254;28;20045;-89
2021/11/15 04:47:33;;;;;;;66.43;28.52;;;;;;;;;;5032866;28;20068;-89
2021/11/15 04:49:58;;;;;;;68.57;29.08;;;;;;;;;;5032670;28;20031;-90
2021/11/15 04:52:24;;;;;;;57.67;25.55;;;;;;;;;;5032842;28;20021;-90
2021/11/15 04:54:49;;;;;;;65.97;28.33;;;;;;;;;;5032720;28;20115;-90
2021/11/15 04:57:15;;;;;;;51.35;22.63;;;;;;;;;;5065427;28;20030;-90
2021/11/15 04:59:41;;;;;;;64.22;27.95;;;;;;;;;;5032390;28;20112;-90
2021/11/15 05:02:06;;;;;;;61.55;27.45;;;;;;;;;;5032153;28;20045;-90
2021/11/15 05:04:31;;;;;;;52.88;23.70;;;;;;;;;;5033754;28;20032;-90
2021/11/15 05:06:56;;;;;;;51.88;24.63;;;;;;;;;;5033294;28;20029;-90
2021/11/15 05:09:22;;;;;;;50.60;21.20;;;;;;;;;;5032402;28;20033;-90
2021/11/15 05:11:47;;;;;;;41.08;17.67;;;;;;;;;;5032213;28;20112;-90
2021/11/15 05:14:12;;;;;;;48.40;22.30;;;;;;;;;;5032098;28;20041;-90
2021/11/15 05:16:37;;;;;;;55.00;24.42;;;;;;;;;;5032441;28;20025;-91
2021/11/15 05:19:03;;;;;;;49.05;22.33;;;;;;;;;;5032114;28;20466;-90
2021/11/15 05:21:28;;;;;;;60.90;24.25;;;;;;;;;;5033392;28;20096;-90
2021/11/15 05:23:54;;;;;;;59.80;25.45;;;;;;;;;;5032556;28;20063;-90
2021/11/15 05:26:20;;;;;;;51.53;23.10;;;;;;;;;;5032007;28;20033;-90
2021/11/15 05:28:45;;;;;;;55.42;25.35;;;;;;;;;;5032305;28;20019;-90
2021/11/15 05:31:10;;;;;;;58.97;25.98;;;;;;;;;;5031987;28;20488;-90
2021/11/15 05:33:35;;;;;;;49.95;23.77;;;;;;;;;;5032235;28;20033;-90
2021/11/15 05:36:01;;;;;;;48.13;20.23;;;;;;;;;;5032029;28;20049;-90
2021/11/15 05:38:27;;;;;;;42.10;18.98;;;;;;;;;;5032167;28;20819;-90
2021/11/15 05:40:52;;;;;;;54.70;25.13;;;;;;;;;;5033301;28;20108;-90
2021/11/15 05:43:17;;;;;;;59.80;27.92;;;;;;;;;;5031975;28;20500;-90
2021/11/15 05:45:42;;;;;;;64.40;27.52;;;;;;;;;;5031782;28;20014;-91
2021/11/15 05:48:07;;;;;;;55.45;24.70;;;;;;;;;;5017788;28;20026;-89
2021/11/15 05:50:33;;;;;;;57.08;26.00;;;;;;;;;;5031982;28;20021;-90
2021/11/15 05:52:58;;;;;;;60.05;26.13;;;;;;;;;;5035881;28;20481;-90
2021/11/15 05:55:24;;;;;;;58.33;26.05;;;;;;;;;;5035864;28;20048;-90
2021/11/15 05:57:50;;;;;;;48.75;21.63;;;;;;;;;;5045158;28;20362;-89
2021/11/15 06:00:16;;;;;;;57.00;25.90;;;;;;;;;;5039745;28;20036;-90
2021/11/15 06:02:42;;;;;;;55.42;25.65;;;;;;;;;;5037334;28;20015;-90
2021/11/15 06:05:07;;;;;;;64.00;25.52;;;;;;;;;;5069035;28;20113;-90
2021/11/15 06:07:33;;;;;;;62.33;25.73;;;;;;;;;;5035703;28;20026;-90
2021/11/15 06:09:58;;;;;;;54.75;23.63;;;;;;;;;;5035774;28;20021;-90
2021/11/15 06:12:23;;;;;;;64.82;26.98;;;;;;;;;;5035783;28;20097;-90
2021/11/15 06:14:48;;;;;;;60.75;27.27;;;;;;;;;;5035594;28;20022;-90
2021/11/15 06:17:15;;;;;;;60.53;25.15;;;;;;;;;;5035492;28;20096;-90
2021/11/15 06:19:40;;;;;;;60.08;26.00;;;;;;;;;;5035721;28;20044;-91
2021/11/15 06:22:05;;;;;;;58.40;24.85;;;;;;;;;;5035712;28;20389;-90
2021/11/15 06:24:31;;;;;;;54.00;24.05;;;;;;;;;;5035405;28;20027;-89
2021/11/15 06:26:56;;;;;;;57.08;26.05;;;;;;;;;;5037007;28;20033;-90
2021/11/15 06:29:21;;;;;;;45.15;21.25;;;;;;;;;;5068727;28;20028;-90
2021/11/15 06:31:47;;;;;;;60.92;27.33;;;;;;;;;;5035413;28;20020;-90
2021/11/15 06:34:13;;;;;;;53.80;22.92;;;;;;;;;;5036465;28;20033;-89
2021/11/15 06:36:38;;;;;;;54.92;24.92;;;;;;;;;;5036452;28;20041;-90
2021/11/15 06:39:06;;;;;;;54.28;22.42;;;;;;;;;;5035496;28;20075;-89
2021/11/15 06:41:31;;;;;;;54.42;23.30;;;;;;;;;;5035168;28;20108;-91
2021/11/15 06:43:57;;;;;;;55.25;22.63;;;;;;;;;;5036442;28;20064;-90
2021/11/15 06:46:23;;;;;;;52.25;21.95;;;;;;;;;;5034975;28;20032;-90
2021/11/15 06:48:48;;;;;;;47.75;21.83;;;;;;;;;;5034979;28;20026;-90
2021/11/15 06:51:13;;;;;;;59.17;26.23;;;;;;;;;;5035792;28;20024;-89
2021/11/15 06:53:39;;;;;;;64.00;25.27;;;;;;;;;;5034601;28;20025;-90
2021/11/15 06:56:05;;;;;;;54.75;23.77;;;;;;;;;;5034915;28;20016;-89
2021/11/15 06:58:31;;;;;;;55.05;24.67;;;;;;;;;;5034869;28;20024;-90
2021/11/15 07:00:56;;;;;;;52.75;23.42;;;;;;;;;;5034842;28;20022;-90
2021/11/15 07:03:21;;;;;;;45.42;20.88;;;;;;;;;;5047878;28;20033;-91
2021/11/15 07:05:47;;;;;;;55.20;23.40;;;;;;;;;;5034212;28;20036;-90
2021/11/15 07:08:13;;;;;;;53.88;23.17;;;;;;;;;;5034616;28;20464;-90
2021/11/15 07:10:39;;;;;;;54.53;24.45;;;;;;;;;;5035289;28;20068;-90
2021/11/15 07:13:04;;;;;;;56.15;22.58;;;;;;;;;;5034269;28;20057;-90
2021/11/15 07:15:30;;;;;;;51.88;22.20;;;;;;;;;;5034265;28;20461;-90
2021/11/15 07:17:55;;;;;;;53.40;23.10;;;;;;;;;;5035549;28;20025;-90
2021/11/15 07:20:20;;;;;;;54.95;23.90;;;;;;;;;;5033940;28;20025;-90
2021/11/15 07:22:47;;;;;;;48.78;20.50;;;;;;;;;;5034289;28;20056;-91
2021/11/15 07:25:13;;;;;;;56.72;23.67;;;;;;;;;;5034458;28;20056;-90
2021/11/15 07:27:39;;;;;;;52.35;21.17;;;;;;;;;;5035688;28;20404;-89
2021/11/15 07:30:05;;;;;;;52.85;22.58;;;;;;;;;;5033982;28;20056;-90
2021/11/15 07:32:31;;;;;;;54.33;24.85;;;;;;;;;;5039383;28;20069;-90
2021/11/15 07:34:56;;;;;;;53.58;22.05;;;;;;;;;;5050251;28;20811;-90
2021/11/15 07:37:21;;;;;;;61.83;24.85;;;;;;;;;;5033581;28;20025;-90
2021/11/15 07:39:47;;;;;;;59.72;24.73;;;;;;;;;;5033826;28;20108;-89
2021/11/15 07:42:13;;;;;;;60.15;23.10;;;;;;;;;;5034309;28;20052;-90
2021/11/15 07:44:39;;;;;;;59.20;24.25;;;;;;;;;;5033647;28;20025;-89
2021/11/15 07:47:07;;;;;;;58.17;24.00;;;;;;;;;;5027956;28;20113;-89
2021/11/15 07:49:33;;;;;;;51.90;21.20;;;;;;;;;;5049128;28;20029;-89
2021/11/15 07:51:58;;;;;;;48.30;20.50;;;;;;;;;;5029905;28;20083;-90
2021/11/15 07:54:24;;;;;;;50.92;21.08;;;;;;;;;;5056845;28;20457;-89
2021/11/15 07:56:49;;;;;;;46.33;18.90;;;;;;;;;;5033549;28;20021;-90
2021/11/15 07:59:14;;;;;;;47.15;16.85;;;;;;;;;;5034899;28;20021;-90
2021/11/15 08:01:40;;;;;;;42.17;17.80;;;;;;;;;;5034694;28;20029;-89
2021/11/15 08:04:05;;;;;;;43.67;17.17;;;;;;;;;;5033559;28;20392;-90
2021/11/15 08:06:30;;;;;;;44.88;20.13;;;;;;;;;;5028340;28;20040;-90
2021/11/15 08:08:55;;;;;;;44.25;18.85;;;;;;;;;;5033755;28;20044;-90
2021/11/15 08:11:22;;;;;;;41.13;18.45;;;;;;;;;;5034863;28;20381;-89
2021/11/15 08:13:47;;;;;;;48.33;19.10;;;;;;;;;;5032942;28;20018;-90
2021/11/15 08:16:12;;;;;;;48.92;18.20;;;;;;;;;;5033082;28;20022;-90
2021/11/15 08:18:38;;;;;;;50.40;19.13;;;;;;;;;;5033256;28;20083;-90
2021/11/15 08:21:08;;;;;;;44.30;18.38;;;;;;;;;;5034399;28;20067;-89
2021/11/15 08:23:33;;;;;;;44.90;18.30;;;;;;;;;;5033133;28;20104;-90
2021/11/15 08:26:05;;;;;;;36.67;15.93;;;;;;;;;;5033426;28;20499;-90
2021/11/15 08:28:30;;;;;;;44.40;17.30;;;;;;;;;;5020371;28;20024;-90
2021/11/15 08:30:57;;;;;;;38.50;16.45;;;;;;;;;;5032625;28;20758;-90
2021/11/15 08:33:22;;;;;;;35.50;15.35;;;;;;;;;;5033137;28;20109;-90
2021/11/15 08:35:48;;;;;;;35.95;16.17;;;;;;;;;;5033286;28;20140;-90
2021/11/15 08:38:17;;;;;;;40.03;16.52;;;;;;;;;;5032718;28;20485;-89
2021/11/15 08:40:44;;;;;;;35.45;15.93;;;;;;;;;;5032366;28;20071;-90
2021/11/15 08:43:09;;;;;;;37.38;15.90;;;;;;;;;;5032889;28;21529;-90
2021/11/15 08:45:35;;;;;;;35.70;14.95;;;;;;;;;;5034022;28;20021;-90
2021/11/15 08:48:02;;;;;;;41.22;15.80;;;;;;;;;;5042529;28;20029;-89
2021/11/15 08:50:27;;;;;;;45.30;18.30;;;;;;;;;;5034270;28;20017;-90
2021/11/15 08:52:53;;;;;;;46.30;17.42;;;;;;;;;;5034041;28;20009;-90
2021/11/15 08:55:18;;;;;;;42.35;15.63;;;;;;;;;;5032818;28;20017;-90
2021/11/15 08:57:43;;;;;;;42.10;16.95;;;;;;;;;;5032907;28;20071;-90
2021/11/15 09:00:09;;;;;;;40.55;16.20;;;;;;;;;;5032634;28;20105;-90
2021/11/15 09:02:34;;;;;;;40.78;15.98;;;;;;;;;;5032769;28;20021;-89
2021/11/15 09:04:59;;;;;;;40.83;15.73;;;;;;;;;;5034208;28;20025;-90
2021/11/15 09:07:24;;;;;;;39.58;16.30;;;;;;;;;;5032215;28;20029;-90
2021/11/15 09:09:49;;;;;;;47.08;17.35;;;;;;;;;;5032289;28;20021;-89
2021/11/15 09:12:16;;;;;;;45.92;18.55;;;;;;;;;;5033688;28;20105;-89
2021/11/15 09:14:41;;;;;;;45.88;17.30;;;;;;;;;;5032378;28;20021;-89
2021/11/15 09:17:07;;;;;;;36.28;15.77;;;;;;;;;;5018474;28;20072;-90
2021/11/15 09:19:32;;;;;;;39.50;16.33;;;;;;;;;;5032393;28;20021;-89
2021/11/15 09:21:57;;;;;;;40.10;15.60;;;;;;;;;;5032651;28;20112;-90
2021/11/15 09:24:23;;;;;;;41.65;15.13;;;;;;;;;;5032239;28;20029;-90
2021/11/15 09:26:49;;;;;;;44.13;16.52;;;;;;;;;;5032383;28;20017;-90
2021/11/15 09:29:15;;;;;;;43.40;16.23;;;;;;;;;;5032013;28;20087;-89
2021/11/15 09:31:40;;;;;;;44.92;17.55;;;;;;;;;;5031840;28;20017;-89
2021/11/15 09:34:05;;;;;;;46.30;16.63;;;;;;;;;;5032667;28;20022;-90
2021/11/15 09:36:31;;;;;;;41.50;16.08;;;;;;;;;;5031811;28;20026;-90
2021/11/15 09:38:57;;;;;;;42.13;16.25;;;;;;;;;;5031938;28;20016;-90
2021/11/15 09:41:23;;;;;;;47.78;16.70;;;;;;;;;;5031751;28;20393;-89
2021/11/15 09:43:49;;;;;;;40.58;15.85;;;;;;;;;;5032111;28;20028;-89
2021/11/15 09:46:17;;;;;;;44.38;17.55;;;;;;;;;;5032018;28;20017;-90
2021/11/15 09:48:46;;;;;;;47.75;15.45;;;;;;;;;;5032022;28;20067;-90
2021/11/15 09:51:12;;;;;;;39.03;15.65;;;;;;;;;;5032020;28;20021;-89
2021/11/15 09:53:38;;;;;;;48.40;18.45;;;;;;;;;;5032033;28;20400;-89
2021/11/15 09:56:04;;;;;;;43.40;15.85;;;;;;;;;;5032068;28;20372;-90
2021/11/15 09:58:30;;;;;;;48.17;16.15;;;;;;;;;;5031954;28;20034;-89
2021/11/15 10:00:56;;;;;;;49.05;18.35;;;;;;;;;;5031377;28;20522;-90
2021/11/15 10:03:21;;;;;;;48.00;17.67;;;;;;;;;;5032135;28;20017;-89
2021/11/15 10:05:46;;;;;;;45.35;17.65;;;;;;;;;;5031503;28;20021;-89
2021/11/15 10:08:12;;;;;;;46.75;19.42;;;;;;;;;;5031815;28;20167;-89
2021/11/15 10:10:41;;;;;;;49.63;19.02;;;;;;;;;;5031758;28;20017;-89
2021/11/15 10:13:23;;;;;;;47.70;18.70;;;;;;;;;;5031871;28;20031;-90
2021/11/15 10:15:51;;;;;;;40.92;15.80;;;;;;;;;;5034734;28;20159;-89
2021/11/15 10:18:20;;;;;;;51.17;18.70;;;;;;;;;;5030057;28;20464;-89
2021/11/15 10:20:47;;;;;;;42.13;16.90;;;;;;;;;;5031659;28;20393;-89
2021/11/15 10:23:44;;;;;;;52.15;18.27;;;;;;;;;;5020235;28;20127;-89
2021/11/15 10:26:11;;;;;;;44.13;17.20;;;;;;;;;;5004963;28;20029;-90
2021/11/15 10:28:37;;;;;;;39.92;16.30;;;;;;;;;;5031526;28;20492;-89
2021/11/15 10:31:02;;;;;;;55.63;19.60;;;;;;;;;;5031063;28;20041;-90
2021/11/15 10:33:34;;;;;;;46.28;18.42;;;;;;;;;;5032824;28;20010;-89
2021/11/15 10:35:59;;;;;;;51.88;18.17;;;;;;;;;;5031461;28;20022;-89
2021/11/15 10:38:45;;;;;;;50.92;18.77;;;;;;;;;;5034329;28;20091;-90
2021/11/15 10:41:14;;;;;;;46.83;17.85;;;;;;;;;;5035665;28;20056;-89
2021/11/15 10:43:39;;;;;;;46.35;16.65;;;;;;;;;;5034556;28;20056;-90
2021/11/15 10:46:05;;;;;;;35.92;14.40;;;;;;;;;;5034955;28;20021;-89
2021/11/15 10:48:44;;;;;;;47.67;16.67;;;;;;;;;;5034846;28;20023;-89
2021/11/15 10:51:12;;;;;;;42.47;15.65;;;;;;;;;;5034849;28;20424;-90
2021/11/15 10:53:44;;;;;;;52.90;17.92;;;;;;;;;;5034540;28;20021;-89
2021/11/15 10:56:16;;;;;;;50.42;19.38;;;;;;;;;;5035114;28;20022;-90
2021/11/15 10:58:41;;;;;;;;;;;;;;;;;;5035193;28;20018;-89
2021/11/15 11:01:10;;;;;;;51.22;17.77;;;;;;;;;;5051186;28;19905;-89
2021/11/15 11:03:36;;;;;;;52.30;19.50;;;;;;;;;;5034546;28;20255;-89
2021/11/15 11:06:06;;;;;;;57.85;19.63;;;;;;;;;;5034734;28;20045;-89
2021/11/15 11:08:39;;;;;;;46.67;17.35;;;;;;;;;;5034710;28;20032;-88
2021/11/15 11:11:10;;;;;;;50.03;18.33;;;;;;;;;;5034752;28;20025;-89
2021/11/15 11:13:54;;;;;;;44.80;16.42;;;;;;;;;;5034360;28;20009;-89
2021/11/15 11:16:21;;;;;;;40.25;15.38;;;;;;;;;;5066511;28;20119;-89
2021/11/15 11:19:02;;;;;;;40.28;14.60;;;;;;;;;;5034422;28;20485;-89
2021/11/15 11:26:43;;;;;;;46.90;17.55;;;;;;;;;;5035929;28;20014;-89
2021/11/15 11:29:14;;;;;;;50.60;16.40;;;;;;;;;;5034182;28;20025;-89
2021/11/15 11:31:42;;;;;;;46.65;16.55;;;;;;;;;;5021549;28;20048;-88
2021/11/15 11:34:07;;;;;;;50.00;18.63;;;;;;;;;;5033924;28;20029;-89
2021/11/15 11:36:33;;;;;;;46.15;16.35;;;;;;;;;;5034351;28;20013;-89
2021/11/15 11:38:58;;;;;;;45.35;16.17;;;;;;;;;;5034322;28;20017;-89
2021/11/15 11:41:23;;;;;;;41.05;15.15;;;;;;;;;;5033674;28;20164;-89
2021/11/15 11:43:49;;;;;;;50.35;18.42;;;;;;;;;;5034097;28;20437;-89
2021/11/15 11:46:16;;;;;;;42.53;16.55;;;;;;;;;;5033848;28;20057;-90
2021/11/15 11:48:45;;;;;;;38.38;15.00;;;;;;;;;;5033009;28;20083;-90
2021/11/15 11:51:12;;;;;;;52.95;20.73;;;;;;;;;;5033965;28;20032;-89
2021/11/15 11:53:37;;;;;;;54.25;19.73;;;;;;;;;;5033653;28;20022;-89
2021/11/15 11:56:12;;;;;;;50.13;18.73;;;;;;;;;;5033938;28;20049;-90
2021/11/15 11:58:39;;;;;;;47.70;18.00;;;;;;;;;;5033638;28;20076;-89
2021/11/15 12:01:13;;;;;;;44.30;16.35;;;;;;;;;;5033992;28;20469;-90
2021/11/15 12:03:38;;;;;;;42.47;15.00;;;;;;;;;;5034959;28;20025;-89
2021/11/15 12:06:23;;;;;;;50.78;18.20;;;;;;;;;;5033698;28;20543;-90
2021/11/15 12:08:52;;;;;;;50.15;17.88;;;;;;;;;;5032416;28;20104;-90
2021/11/15 12:11:25;;;;;;;49.95;18.65;;;;;;;;;;5033799;28;20075;-89
2021/11/15 12:13:51;;;;;;;50.78;18.50;;;;;;;;;;5033582;28;20377;-89
2021/11/15 12:16:16;;;;;;;50.22;18.80;;;;;;;;;;5033492;28;20021;-90
2021/11/15 12:18:53;;;;;;;48.28;18.88;;;;;;;;;;5033569;28;20027;-89
2021/11/15 12:21:20;;;;;;;44.25;17.23;;;;;;;;;;5033493;28;20389;-90
2021/11/15 12:23:52;;;;;;;57.70;19.88;;;;;;;;;;5033308;28;20496;-90
2021/11/15 12:26:22;;;;;;;51.42;18.38;;;;;;;;;;5033173;28;20022;-90
2021/11/15 12:28:49;;;;;;;48.58;18.33;;;;;;;;;;5034314;28;20019;-90
2021/11/15 12:31:15;;;;;;;45.63;18.23;;;;;;;;;;5033069;28;20373;-89
2021/11/15 12:33:42;;;;;;;57.28;20.92;;;;;;;;;;5033299;28;20021;-90
2021/11/15 12:36:08;;;;;;;56.10;20.40;;;;;;;;;;5033102;28;20056;-89
2021/11/15 12:38:36;;;;;;;57.30;21.48;;;;;;;;;;5033421;28;20087;-89
2021/11/15 12:41:17;;;;;;;52.35;19.10;;;;;;;;;;5033349;28;20017;-90
2021/11/15 12:43:43;;;;;;;56.00;17.60;;;;;;;;;;5033222;28;20022;-90
2021/11/15 12:46:16;;;;;;;47.20;18.25;;;;;;;;;;5034056;28;20016;-89
2021/11/15 12:48:42;;;;;;;51.70;18.63;;;;;;;;;;5031690;28;20028;-90
2021/11/15 12:51:16;;;;;;;52.90;18.15;;;;;;;;;;5032403;28;20022;-89
2021/11/15 12:53:43;;;;;;;55.35;19.75;;;;;;;;;;5032651;28;20162;-89
2021/11/15 12:56:10;;;;;;;45.72;17.17;;;;;;;;;;5032756;28;20075;-89
2021/11/15 12:58:35;;;;;;;44.67;16.58;;;;;;;;;;5030233;28;20014;-89
2021/11/15 13:01:00;;;;;;;57.55;19.67;;;;;;;;;;5037313;28;20026;-90
2021/11/15 13:03:26;;;;;;;56.53;20.70;;;;;;;;;;5032590;28;20083;-88
2021/11/15 13:05:51;;;;;;;40.85;16.27;;;;;;;;;;5033646;28;20029;-89
2021/11/15 13:08:16;;;;;;;51.25;18.85;;;;;;;;;;5032578;28;20048;-89
2021/11/15 13:10:46;;;;;;;57.63;20.77;;;;;;;;;;5032129;28;20071;-89
2021/11/15 13:13:13;;;;;;;49.15;18.83;;;;;;;;;;5056410;28;20108;-89
2021/11/15 13:15:38;;;;;;;46.85;17.05;;;;;;;;;;5032414;28;20018;-89
2021/11/15 13:18:04;;;;;;;45.55;17.20;;;;;;;;;;5032182;28;20035;-89
2021/11/15 13:20:29;;;;;;;40.17;16.77;;;;;;;;;;5032326;28;20392;-89
2021/11/15 13:22:55;;;;;;;47.85;17.20;;;;;;;;;;5032754;28;20025;-88
2021/11/15 13:25:20;;;;;;;41.10;16.13;;;;;;;;;;5031929;28;20559;-88
2021/11/15 13:27:46;;;;;;;38.92;15.65;;;;;;;;;;5033315;28;20022;-89
2021/11/15 13:30:14;;;;;;;43.97;14.30;;;;;;;;;;5033112;28;20025;-89
2021/11/15 13:32:40;;;;;;;44.15;16.13;;;;;;;;;;5031735;28;20028;-88
2021/11/15 13:35:06;;;;;;;53.83;18.23;;;;;;;;;;5031301;28;20030;-89
2021/11/15 13:37:31;;;;;;;49.65;17.38;;;;;;;;;;5032253;28;20385;-89
2021/11/15 13:39:56;;;;;;;46.38;17.42;;;;;;;;;;5031380;28;20017;-89
2021/11/15 13:42:22;;;;;;;49.13;16.48;;;;;;;;;;5031913;28;20021;-89
2021/11/15 13:44:48;;;;;;;45.38;15.90;;;;;;;;;;5031642;28;20022;-88
2021/11/15 13:47:15;;;;;;;39.80;15.07;;;;;;;;;;5035055;28;20484;-88
2021/11/15 13:49:40;;;;;;;40.10;13.65;;;;;;;;;;5031626;28;20111;-89
2021/11/15 13:52:06;;;;;;;39.65;14.07;;;;;;;;;;5032077;28;20492;-88
2021/11/15 13:54:34;;;;;;;48.55;15.68;;;;;;;;;;5032713;28;20041;-88
2021/11/15 13:56:59;;;;;;;45.97;16.58;;;;;;;;;;5031787;28;20021;-88
2021/11/15 13:59:25;;;;;;;47.72;17.55;;;;;;;;;;5031673;28;20025;-89
2021/11/15 14:01:50;;;;;;;52.35;17.60;;;;;;;;;;5031698;28;20074;-89
2021/11/15 14:04:15;;;;;;;50.60;16.92;;;;;;;;;;5031675;28;20037;-88
2021/11/15 14:06:41;;;;;;;51.70;17.35;;;;;;;;;;5031844;28;20032;-89
2021/11/15 14:09:08;;;;;;;45.55;15.65;;;;;;;;;;5031532;28;20112;-89
2021/11/15 14:11:33;;;;;;;45.83;16.48;;;;;;;;;;5033109;28;20045;-88
2021/11/15 14:13:58;;;;;;;43.40;16.65;;;;;;;;;;5035419;28;20380;-89
2021/11/15 14:16:23;;;;;;;44.83;16.67;;;;;;;;;;5035631;28;20476;-88
2021/11/15 14:18:49;;;;;;;39.80;14.68;;;;;;;;;;5035207;28;20036;-89